sensor_id;sensor_type;location;lat;lon;timestamp;P1;durP1;ratioP1;P2;durP2;ratioP2
23737;SDS011;12049;51.068;3.688;2022-07-29T00:00:45;7.88;;;3.55;;
23737;SDS011;12049;51.068;3.688;2022-07-29T00:03:11;8.32;;;3.13;;
23737;SDS011;12049;51.068;3.688;2022-07-29T00:05:40;6.85;;;3.42;;
23737;SDS011;12049;51.068;3.688;2022-07-29T00:08:06;7.45;;;3.60;;
23737;SDS011;12049;51.068;3.688;2022-07-29T00:10:32;6.82;;;3.80;;
23737;SDS011;12049;51.068;3.688;2022-07-29T00:12:58;10.57;;;3.75;;
23737;SDS011;12049;51.068;3.688;2022-07-29T00:15:24;14.95;;;4.10;;
23737;SDS011;12049;51.068;3.688;2022-07-29T00:17:50;10.63;;;3.83;;
23737;SDS011;12049;51.068;3.688;2022-07-29T00:20:15;10.27;;;3.95;;
23737;SDS011;12049;51.068;3.688;2022-07-29T00:22:41;10.57;;;3.40;;
23737;SDS011;12049;51.068;3.688;2022-07-29T00:25:07;9.63;;;3.72;;
23737;SDS011;12049;51.068;3.688;2022-07-29T00:27:34;8.00;;;3.58;;
23737;SDS011;12049;51.068;3.688;2022-07-29T00:30:00;12.70;;;3.90;;
23737;SDS011;12049;51.068;3.688;2022-07-29T00:32:26;10.43;;;3.60;;
23737;SDS011;12049;51.068;3.688;2022-07-29T00:34:51;10.68;;;3.92;;
23737;SDS011;12049;51.068;3.688;2022-07-29T00:37:36;9.27;;;3.38;;
23737;SDS011;12049;51.068;3.688;2022-07-29T00:40:02;10.98;;;3.67;;
23737;SDS011;12049;51.068;3.688;2022-07-29T00:42:28;9.70;;;3.67;;
23737;SDS011;12049;51.068;3.688;2022-07-29T00:44:53;9.13;;;4.15;;
23737;SDS011;12049;51.068;3.688;2022-07-29T00:47:19;10.32;;;3.72;;
23737;SDS011;12049;51.068;3.688;2022-07-29T00:49:44;8.88;;;3.83;;
23737;SDS011;12049;51.068;3.688;2022-07-29T00:52:10;9.05;;;3.50;;
23737;SDS011;12049;51.068;3.688;2022-07-29T00:54:37;6.80;;;3.47;;
23737;SDS011;12049;51.068;3.688;2022-07-29T00:57:05;9.63;;;3.78;;
23737;SDS011;12049;51.068;3.688;2022-07-29T00:59:31;7.72;;;3.65;;
23737;SDS011;12049;51.068;3.688;2022-07-29T01:01:57;7.63;;;3.67;;
23737;SDS011;12049;51.068;3.688;2022-07-29T01:04:22;8.55;;;3.78;;
23737;SDS011;12049;51.068;3.688;2022-07-29T01:06:48;10.80;;;3.85;;
23737;SDS011;12049;51.068;3.688;2022-07-29T01:09:15;8.95;;;3.25;;
23737;SDS011;12049;51.068;3.688;2022-07-29T01:11:43;7.55;;;3.20;;
23737;SDS011;12049;51.068;3.688;2022-07-29T01:14:09;5.72;;;3.00;;
23737;SDS011;12049;51.068;3.688;2022-07-29T01:16:46;9.05;;;3.60;;
23737;SDS011;12049;51.068;3.688;2022-07-29T01:30:22;7.82;;;3.50;;
23737;SDS011;12049;51.068;3.688;2022-07-29T01:32:50;6.80;;;2.97;;
23737;SDS011;12049;51.068;3.688;2022-07-29T01:35:23;10.95;;;2.90;;
23737;SDS011;12049;51.068;3.688;2022-07-29T01:40:47;5.55;;;3.20;;
23737;SDS011;12049;51.068;3.688;2022-07-29T01:43:21;5.55;;;2.72;;
23737;SDS011;12049;51.068;3.688;2022-07-29T01:46:04;8.88;;;3.30;;
23737;SDS011;12049;51.068;3.688;2022-07-29T01:48:41;9.35;;;3.40;;
23737;SDS011;12049;51.068;3.688;2022-07-29T01:51:14;6.45;;;3.42;;
23737;SDS011;12049;51.068;3.688;2022-07-29T01:53:50;6.13;;;3.35;;
23737;SDS011;12049;51.068;3.688;2022-07-29T01:56:31;6.15;;;3.00;;
23737;SDS011;12049;51.068;3.688;2022-07-29T01:58:59;6.53;;;3.15;;
23737;SDS011;12049;51.068;3.688;2022-07-29T02:01:26;8.95;;;3.10;;
23737;SDS011;12049;51.068;3.688;2022-07-29T02:03:54;6.75;;;3.15;;
23737;SDS011;12049;51.068;3.688;2022-07-29T02:06:22;6.60;;;3.00;;
23737;SDS011;12049;51.068;3.688;2022-07-29T02:08:49;7.55;;;3.40;;
23737;SDS011;12049;51.068;3.688;2022-07-29T02:11:17;7.63;;;2.85;;
23737;SDS011;12049;51.068;3.688;2022-07-29T02:13:43;9.65;;;3.20;;
23737;SDS011;12049;51.068;3.688;2022-07-29T02:16:10;5.82;;;3.00;;
23737;SDS011;12049;51.068;3.688;2022-07-29T02:18:39;8.55;;;3.20;;
23737;SDS011;12049;51.068;3.688;2022-07-29T02:21:07;8.50;;;2.83;;
23737;SDS011;12049;51.068;3.688;2022-07-29T02:23:34;8.00;;;3.35;;
23737;SDS011;12049;51.068;3.688;2022-07-29T02:26:02;5.13;;;2.78;;
23737;SDS011;12049;51.068;3.688;2022-07-29T02:28:29;4.40;;;2.70;;
23737;SDS011;12049;51.068;3.688;2022-07-29T02:30:57;7.13;;;2.70;;
23737;SDS011;12049;51.068;3.688;2022-07-29T02:33:25;7.80;;;3.08;;
23737;SDS011;12049;51.068;3.688;2022-07-29T02:35:54;7.22;;;2.80;;
23737;SDS011;12049;51.068;3.688;2022-07-29T02:38:22;4.43;;;2.60;;
23737;SDS011;12049;51.068;3.688;2022-07-29T02:41:12;6.13;;;2.67;;
23737;SDS011;12049;51.068;3.688;2022-07-29T02:43:41;7.68;;;3.05;;
23737;SDS011;12049;51.068;3.688;2022-07-29T02:46:13;5.57;;;3.05;;
23737;SDS011;12049;51.068;3.688;2022-07-29T02:48:45;5.95;;;2.70;;
23737;SDS011;12049;51.068;3.688;2022-07-29T02:51:19;5.60;;;2.90;;
23737;SDS011;12049;51.068;3.688;2022-07-29T02:53:51;6.38;;;2.78;;
23737;SDS011;12049;51.068;3.688;2022-07-29T02:56:22;6.18;;;3.20;;
23737;SDS011;12049;51.068;3.688;2022-07-29T02:58:54;7.97;;;2.90;;
23737;SDS011;12049;51.068;3.688;2022-07-29T03:01:23;6.20;;;2.80;;
23737;SDS011;12049;51.068;3.688;2022-07-29T03:03:51;5.22;;;2.78;;
23737;SDS011;12049;51.068;3.688;2022-07-29T03:06:19;6.90;;;2.88;;
23737;SDS011;12049;51.068;3.688;2022-07-29T03:08:47;7.15;;;2.72;;
23737;SDS011;12049;51.068;3.688;2022-07-29T03:11:13;8.00;;;3.05;;
23737;SDS011;12049;51.068;3.688;2022-07-29T03:13:40;6.40;;;2.97;;
23737;SDS011;12049;51.068;3.688;2022-07-29T03:16:06;8.00;;;3.08;;
23737;SDS011;12049;51.068;3.688;2022-07-29T03:18:33;8.70;;;2.90;;
23737;SDS011;12049;51.068;3.688;2022-07-29T03:20:59;4.80;;;2.70;;
23737;SDS011;12049;51.068;3.688;2022-07-29T03:23:25;7.70;;;2.75;;
23737;SDS011;12049;51.068;3.688;2022-07-29T03:25:53;5.90;;;2.50;;
23737;SDS011;12049;51.068;3.688;2022-07-29T03:28:19;7.00;;;2.80;;
23737;SDS011;12049;51.068;3.688;2022-07-29T03:30:45;4.00;;;2.67;;
23737;SDS011;12049;51.068;3.688;2022-07-29T03:33:11;6.38;;;2.75;;
23737;SDS011;12049;51.068;3.688;2022-07-29T03:35:37;6.78;;;2.90;;
23737;SDS011;12049;51.068;3.688;2022-07-29T03:38:03;5.45;;;2.80;;
23737;SDS011;12049;51.068;3.688;2022-07-29T03:40:38;6.07;;;3.10;;
23737;SDS011;12049;51.068;3.688;2022-07-29T03:43:18;5.70;;;2.60;;
23737;SDS011;12049;51.068;3.688;2022-07-29T03:45:46;7.68;;;3.10;;
23737;SDS011;12049;51.068;3.688;2022-07-29T03:48:15;6.30;;;2.60;;
23737;SDS011;12049;51.068;3.688;2022-07-29T03:50:44;5.50;;;3.10;;
23737;SDS011;12049;51.068;3.688;2022-07-29T03:53:10;3.95;;;2.50;;
23737;SDS011;12049;51.068;3.688;2022-07-29T03:55:37;6.13;;;2.72;;
23737;SDS011;12049;51.068;3.688;2022-07-29T03:58:06;5.03;;;2.78;;
23737;SDS011;12049;51.068;3.688;2022-07-29T04:00:33;7.63;;;3.15;;
23737;SDS011;12049;51.068;3.688;2022-07-29T04:03:00;6.15;;;2.97;;
23737;SDS011;12049;51.068;3.688;2022-07-29T04:05:26;5.55;;;2.60;;
23737;SDS011;12049;51.068;3.688;2022-07-29T04:07:52;6.55;;;2.75;;
23737;SDS011;12049;51.068;3.688;2022-07-29T04:10:17;5.57;;;2.60;;
23737;SDS011;12049;51.068;3.688;2022-07-29T04:12:48;9.88;;;3.25;;
23737;SDS011;12049;51.068;3.688;2022-07-29T04:15:14;5.60;;;2.85;;
23737;SDS011;12049;51.068;3.688;2022-07-29T04:17:39;7.97;;;2.67;;
23737;SDS011;12049;51.068;3.688;2022-07-29T04:20:05;4.35;;;2.80;;
23737;SDS011;12049;51.068;3.688;2022-07-29T04:22:31;6.68;;;3.33;;
23737;SDS011;12049;51.068;3.688;2022-07-29T04:24:57;7.03;;;3.15;;
23737;SDS011;12049;51.068;3.688;2022-07-29T04:27:22;8.30;;;3.60;;
23737;SDS011;12049;51.068;3.688;2022-07-29T04:29:48;5.97;;;3.28;;
23737;SDS011;12049;51.068;3.688;2022-07-29T04:32:14;5.95;;;3.33;;
23737;SDS011;12049;51.068;3.688;2022-07-29T04:34:39;4.22;;;3.22;;
23737;SDS011;12049;51.068;3.688;2022-07-29T04:37:05;4.20;;;3.30;;
23737;SDS011;12049;51.068;3.688;2022-07-29T04:39:34;8.13;;;3.55;;
23737;SDS011;12049;51.068;3.688;2022-07-29T04:41:59;6.60;;;3.50;;
23737;SDS011;12049;51.068;3.688;2022-07-29T04:44:25;8.50;;;3.55;;
23737;SDS011;12049;51.068;3.688;2022-07-29T04:46:51;7.72;;;3.70;;
23737;SDS011;12049;51.068;3.688;2022-07-29T04:49:17;6.68;;;3.50;;
23737;SDS011;12049;51.068;3.688;2022-07-29T04:51:42;8.90;;;3.35;;
23737;SDS011;12049;51.068;3.688;2022-07-29T04:54:08;10.05;;;3.30;;
23737;SDS011;12049;51.068;3.688;2022-07-29T04:56:33;6.32;;;3.55;;
23737;SDS011;12049;51.068;3.688;2022-07-29T04:58:59;6.47;;;3.58;;
23737;SDS011;12049;51.068;3.688;2022-07-29T05:01:25;7.47;;;3.50;;
23737;SDS011;12049;51.068;3.688;2022-07-29T05:03:50;8.70;;;3.60;;
23737;SDS011;12049;51.068;3.688;2022-07-29T05:06:16;5.05;;;3.47;;
23737;SDS011;12049;51.068;3.688;2022-07-29T05:08:41;5.10;;;3.65;;
23737;SDS011;12049;51.068;3.688;2022-07-29T05:11:07;5.97;;;3.33;;
23737;SDS011;12049;51.068;3.688;2022-07-29T05:13:33;6.13;;;3.30;;
23737;SDS011;12049;51.068;3.688;2022-07-29T05:15:58;6.65;;;3.63;;
23737;SDS011;12049;51.068;3.688;2022-07-29T05:18:25;4.72;;;3.40;;
23737;SDS011;12049;51.068;3.688;2022-07-29T05:20:50;7.40;;;3.22;;
23737;SDS011;12049;51.068;3.688;2022-07-29T05:23:17;5.03;;;3.30;;
23737;SDS011;12049;51.068;3.688;2022-07-29T05:25:42;4.57;;;2.85;;
23737;SDS011;12049;51.068;3.688;2022-07-29T05:28:08;6.53;;;3.35;;
23737;SDS011;12049;51.068;3.688;2022-07-29T05:30:34;6.30;;;3.28;;
23737;SDS011;12049;51.068;3.688;2022-07-29T05:33:00;8.48;;;3.47;;
23737;SDS011;12049;51.068;3.688;2022-07-29T05:35:25;7.07;;;3.15;;
23737;SDS011;12049;51.068;3.688;2022-07-29T05:37:51;6.85;;;3.05;;
23737;SDS011;12049;51.068;3.688;2022-07-29T05:40:17;4.78;;;3.20;;
23737;SDS011;12049;51.068;3.688;2022-07-29T05:42:42;4.88;;;3.05;;
23737;SDS011;12049;51.068;3.688;2022-07-29T05:45:08;5.22;;;3.08;;
23737;SDS011;12049;51.068;3.688;2022-07-29T05:47:34;5.45;;;3.20;;
23737;SDS011;12049;51.068;3.688;2022-07-29T05:50:00;7.68;;;3.20;;
23737;SDS011;12049;51.068;3.688;2022-07-29T05:52:25;5.40;;;3.20;;
23737;SDS011;12049;51.068;3.688;2022-07-29T05:54:54;7.38;;;3.22;;
23737;SDS011;12049;51.068;3.688;2022-07-29T05:57:21;6.95;;;3.10;;
23737;SDS011;12049;51.068;3.688;2022-07-29T05:59:48;5.68;;;3.20;;
23737;SDS011;12049;51.068;3.688;2022-07-29T06:02:15;9.90;;;3.35;;
23737;SDS011;12049;51.068;3.688;2022-07-29T06:04:41;7.63;;;3.28;;
23737;SDS011;12049;51.068;3.688;2022-07-29T06:07:07;6.40;;;3.20;;
23737;SDS011;12049;51.068;3.688;2022-07-29T06:09:33;4.50;;;3.28;;
23737;SDS011;12049;51.068;3.688;2022-07-29T06:11:59;5.93;;;3.15;;
23737;SDS011;12049;51.068;3.688;2022-07-29T06:14:25;4.10;;;3.10;;
23737;SDS011;12049;51.068;3.688;2022-07-29T06:16:54;6.13;;;3.35;;
23737;SDS011;12049;51.068;3.688;2022-07-29T06:19:20;5.90;;;3.45;;
23737;SDS011;12049;51.068;3.688;2022-07-29T06:21:46;4.68;;;3.30;;
23737;SDS011;12049;51.068;3.688;2022-07-29T06:24:13;5.75;;;3.28;;
23737;SDS011;12049;51.068;3.688;2022-07-29T06:26:40;7.63;;;3.30;;
23737;SDS011;12049;51.068;3.688;2022-07-29T06:29:06;5.93;;;4.22;;
23737;SDS011;12049;51.068;3.688;2022-07-29T06:31:33;7.28;;;3.58;;
23737;SDS011;12049;51.068;3.688;2022-07-29T06:33:59;7.00;;;3.70;;
23737;SDS011;12049;51.068;3.688;2022-07-29T06:36:25;7.38;;;4.72;;
23737;SDS011;12049;51.068;3.688;2022-07-29T06:38:50;7.60;;;5.25;;
23737;SDS011;12049;51.068;3.688;2022-07-29T06:41:16;10.25;;;5.90;;
23737;SDS011;12049;51.068;3.688;2022-07-29T06:43:43;10.65;;;7.22;;
23737;SDS011;12049;51.068;3.688;2022-07-29T06:46:10;10.57;;;7.75;;
23737;SDS011;12049;51.068;3.688;2022-07-29T06:48:38;12.25;;;6.93;;
23737;SDS011;12049;51.068;3.688;2022-07-29T06:51:05;13.70;;;7.25;;
23737;SDS011;12049;51.068;3.688;2022-07-29T06:53:32;9.55;;;6.90;;
23737;SDS011;12049;51.068;3.688;2022-07-29T06:55:58;23.65;;;12.90;;
23737;SDS011;12049;51.068;3.688;2022-07-29T06:58:25;22.02;;;13.15;;
23737;SDS011;12049;51.068;3.688;2022-07-29T07:00:52;13.43;;;9.82;;
23737;SDS011;12049;51.068;3.688;2022-07-29T07:03:18;13.43;;;8.57;;
23737;SDS011;12049;51.068;3.688;2022-07-29T07:05:44;12.85;;;9.65;;
23737;SDS011;12049;51.068;3.688;2022-07-29T07:08:11;14.38;;;9.35;;
23737;SDS011;12049;51.068;3.688;2022-07-29T07:10:37;17.00;;;10.73;;
23737;SDS011;12049;51.068;3.688;2022-07-29T07:13:04;14.98;;;10.10;;
23737;SDS011;12049;51.068;3.688;2022-07-29T07:15:30;14.95;;;9.65;;
23737;SDS011;12049;51.068;3.688;2022-07-29T07:17:56;17.70;;;10.75;;
23737;SDS011;12049;51.068;3.688;2022-07-29T07:20:22;21.08;;;12.02;;
23737;SDS011;12049;51.068;3.688;2022-07-29T07:22:49;22.77;;;12.25;;
23737;SDS011;12049;51.068;3.688;2022-07-29T07:25:15;16.52;;;11.40;;
23737;SDS011;12049;51.068;3.688;2022-07-29T07:27:42;16.98;;;10.48;;
23737;SDS011;12049;51.068;3.688;2022-07-29T07:30:09;18.95;;;11.15;;
23737;SDS011;12049;51.068;3.688;2022-07-29T07:32:35;19.38;;;10.23;;
23737;SDS011;12049;51.068;3.688;2022-07-29T07:35:02;14.73;;;8.73;;
23737;SDS011;12049;51.068;3.688;2022-07-29T07:37:31;20.25;;;8.95;;
23737;SDS011;12049;51.068;3.688;2022-07-29T07:40:00;21.75;;;8.43;;
23737;SDS011;12049;51.068;3.688;2022-07-29T07:42:26;15.70;;;7.50;;
23737;SDS011;12049;51.068;3.688;2022-07-29T07:44:52;11.20;;;6.55;;
23737;SDS011;12049;51.068;3.688;2022-07-29T07:47:17;15.40;;;6.82;;
23737;SDS011;12049;51.068;3.688;2022-07-29T07:49:48;18.17;;;5.80;;
23737;SDS011;12049;51.068;3.688;2022-07-29T07:52:18;12.00;;;5.60;;
23737;SDS011;12049;51.068;3.688;2022-07-29T07:54:45;10.23;;;5.60;;
23737;SDS011;12049;51.068;3.688;2022-07-29T07:57:11;14.85;;;5.45;;
23737;SDS011;12049;51.068;3.688;2022-07-29T07:59:38;11.90;;;5.43;;
23737;SDS011;12049;51.068;3.688;2022-07-29T08:02:04;13.57;;;5.40;;
23737;SDS011;12049;51.068;3.688;2022-07-29T08:04:30;14.25;;;5.10;;
23737;SDS011;12049;51.068;3.688;2022-07-29T08:06:56;9.43;;;4.28;;
23737;SDS011;12049;51.068;3.688;2022-07-29T08:09:23;9.40;;;4.20;;
23737;SDS011;12049;51.068;3.688;2022-07-29T08:11:50;9.15;;;3.88;;
23737;SDS011;12049;51.068;3.688;2022-07-29T08:14:15;7.05;;;3.75;;
23737;SDS011;12049;51.068;3.688;2022-07-29T08:16:41;9.57;;;3.63;;
23737;SDS011;12049;51.068;3.688;2022-07-29T08:19:07;7.00;;;3.10;;
23737;SDS011;12049;51.068;3.688;2022-07-29T08:21:34;9.88;;;3.70;;
23737;SDS011;12049;51.068;3.688;2022-07-29T08:24:00;8.77;;;3.85;;
23737;SDS011;12049;51.068;3.688;2022-07-29T08:26:45;6.43;;;3.00;;
23737;SDS011;12049;51.068;3.688;2022-07-29T08:29:11;7.65;;;3.50;;
23737;SDS011;12049;51.068;3.688;2022-07-29T08:31:37;6.55;;;3.72;;
23737;SDS011;12049;51.068;3.688;2022-07-29T08:34:03;6.03;;;3.33;;
23737;SDS011;12049;51.068;3.688;2022-07-29T08:36:30;8.13;;;3.75;;
23737;SDS011;12049;51.068;3.688;2022-07-29T08:38:57;6.32;;;3.13;;
23737;SDS011;12049;51.068;3.688;2022-07-29T08:41:22;5.82;;;2.97;;
23737;SDS011;12049;51.068;3.688;2022-07-29T08:43:48;6.07;;;3.70;;
23737;SDS011;12049;51.068;3.688;2022-07-29T08:46:15;9.18;;;4.13;;
23737;SDS011;12049;51.068;3.688;2022-07-29T08:48:42;6.35;;;3.38;;
23737;SDS011;12049;51.068;3.688;2022-07-29T08:51:08;5.40;;;2.72;;
23737;SDS011;12049;51.068;3.688;2022-07-29T08:53:40;5.07;;;2.80;;
23737;SDS011;12049;51.068;3.688;2022-07-29T08:56:07;8.77;;;3.00;;
23737;SDS011;12049;51.068;3.688;2022-07-29T08:58:35;6.13;;;2.72;;
23737;SDS011;12049;51.068;3.688;2022-07-29T09:01:01;4.97;;;3.10;;
23737;SDS011;12049;51.068;3.688;2022-07-29T09:03:31;7.72;;;2.80;;
23737;SDS011;12049;51.068;3.688;2022-07-29T09:05:59;10.05;;;3.00;;
23737;SDS011;12049;51.068;3.688;2022-07-29T09:08:26;6.47;;;2.95;;
23737;SDS011;12049;51.068;3.688;2022-07-29T09:10:53;7.25;;;2.70;;
23737;SDS011;12049;51.068;3.688;2022-07-29T09:13:20;6.47;;;2.40;;
23737;SDS011;12049;51.068;3.688;2022-07-29T09:15:47;6.78;;;2.67;;
23737;SDS011;12049;51.068;3.688;2022-07-29T09:18:29;5.45;;;2.40;;
23737;SDS011;12049;51.068;3.688;2022-07-29T09:21:09;8.88;;;2.80;;
23737;SDS011;12049;51.068;3.688;2022-07-29T09:24:05;8.68;;;2.78;;
23737;SDS011;12049;51.068;3.688;2022-07-29T09:26:36;6.68;;;2.58;;
23737;SDS011;12049;51.068;3.688;2022-07-29T09:29:12;5.78;;;2.60;;
23737;SDS011;12049;51.068;3.688;2022-07-29T09:31:43;8.77;;;2.75;;
23737;SDS011;12049;51.068;3.688;2022-07-29T09:34:10;4.20;;;2.60;;
23737;SDS011;12049;51.068;3.688;2022-07-29T09:36:44;9.93;;;2.58;;
23737;SDS011;12049;51.068;3.688;2022-07-29T09:39:11;6.22;;;2.60;;
23737;SDS011;12049;51.068;3.688;2022-07-29T09:42:11;6.53;;;2.70;;
23737;SDS011;12049;51.068;3.688;2022-07-29T09:44:47;5.68;;;2.50;;
23737;SDS011;12049;51.068;3.688;2022-07-29T09:47:14;5.95;;;2.17;;
23737;SDS011;12049;51.068;3.688;2022-07-29T09:49:56;4.80;;;2.40;;
23737;SDS011;12049;51.068;3.688;2022-07-29T09:52:24;6.93;;;2.30;;
23737;SDS011;12049;51.068;3.688;2022-07-29T09:54:51;6.53;;;2.35;;
23737;SDS011;12049;51.068;3.688;2022-07-29T09:57:23;5.72;;;2.05;;
23737;SDS011;12049;51.068;3.688;2022-07-29T10:00:05;5.85;;;2.03;;
23737;SDS011;12049;51.068;3.688;2022-07-29T10:02:34;6.70;;;2.10;;
23737;SDS011;12049;51.068;3.688;2022-07-29T10:05:02;7.82;;;2.08;;
23737;SDS011;12049;51.068;3.688;2022-07-29T10:07:45;5.43;;;1.70;;
23737;SDS011;12049;51.068;3.688;2022-07-29T10:10:18;4.82;;;1.88;;
23737;SDS011;12049;51.068;3.688;2022-07-29T10:12:50;6.00;;;1.70;;
23737;SDS011;12049;51.068;3.688;2022-07-29T10:15:17;4.15;;;1.50;;
23737;SDS011;12049;51.068;3.688;2022-07-29T10:17:43;5.32;;;1.77;;
23737;SDS011;12049;51.068;3.688;2022-07-29T10:20:10;3.90;;;1.80;;
23737;SDS011;12049;51.068;3.688;2022-07-29T10:22:36;8.35;;;1.90;;
23737;SDS011;12049;51.068;3.688;2022-07-29T10:25:02;7.03;;;1.95;;
23737;SDS011;12049;51.068;3.688;2022-07-29T10:27:28;6.38;;;1.90;;
23737;SDS011;12049;51.068;3.688;2022-07-29T10:29:53;8.68;;;1.80;;
23737;SDS011;12049;51.068;3.688;2022-07-29T10:35:01;4.45;;;1.45;;
23737;SDS011;12049;51.068;3.688;2022-07-29T10:43:42;4.13;;;1.45;;
23737;SDS011;12049;51.068;3.688;2022-07-29T10:46:10;4.63;;;1.75;;
23737;SDS011;12049;51.068;3.688;2022-07-29T11:07:27;7.55;;;2.00;;
23737;SDS011;12049;51.068;3.688;2022-07-29T11:15:02;4.38;;;1.83;;
23737;SDS011;12049;51.068;3.688;2022-07-29T11:18:02;7.32;;;1.80;;
23737;SDS011;12049;51.068;3.688;2022-07-29T11:39:36;4.20;;;1.60;;
23737;SDS011;12049;51.068;3.688;2022-07-29T11:47:48;8.98;;;2.00;;
23737;SDS011;12049;51.068;3.688;2022-07-29T11:50:26;6.72;;;1.98;;
23737;SDS011;12049;51.068;3.688;2022-07-29T11:52:57;5.00;;;1.67;;
23737;SDS011;12049;51.068;3.688;2022-07-29T11:55:23;8.07;;;1.83;;
23737;SDS011;12049;51.068;3.688;2022-07-29T12:00:21;5.72;;;1.90;;
23737;SDS011;12049;51.068;3.688;2022-07-29T12:02:57;11.15;;;2.00;;
23737;SDS011;12049;51.068;3.688;2022-07-29T12:05:57;3.97;;;1.83;;
23737;SDS011;12049;51.068;3.688;2022-07-29T12:08:17;3.55;;;1.60;;
23737;SDS011;12049;51.068;3.688;2022-07-29T12:10:46;6.50;;;1.83;;
23737;SDS011;12049;51.068;3.688;2022-07-29T12:13:13;8.60;;;1.80;;
23737;SDS011;12049;51.068;3.688;2022-07-29T12:15:40;7.40;;;2.00;;
23737;SDS011;12049;51.068;3.688;2022-07-29T12:18:13;5.03;;;1.70;;
23737;SDS011;12049;51.068;3.688;2022-07-29T12:20:40;7.20;;;2.20;;
23737;SDS011;12049;51.068;3.688;2022-07-29T12:23:07;4.25;;;1.63;;
23737;SDS011;12049;51.068;3.688;2022-07-29T12:25:34;4.65;;;1.70;;
23737;SDS011;12049;51.068;3.688;2022-07-29T12:28:05;5.00;;;2.10;;
23737;SDS011;12049;51.068;3.688;2022-07-29T12:30:51;4.40;;;1.50;;
23737;SDS011;12049;51.068;3.688;2022-07-29T12:33:18;8.27;;;1.98;;
23737;SDS011;12049;51.068;3.688;2022-07-29T12:38:19;4.97;;;1.73;;
23737;SDS011;12049;51.068;3.688;2022-07-29T12:40:46;5.68;;;1.70;;
23737;SDS011;12049;51.068;3.688;2022-07-29T12:43:14;5.05;;;1.67;;
23737;SDS011;12049;51.068;3.688;2022-07-29T12:45:45;7.72;;;2.47;;
23737;SDS011;12049;51.068;3.688;2022-07-29T12:48:14;8.73;;;2.13;;
23737;SDS011;12049;51.068;3.688;2022-07-29T12:50:56;8.23;;;2.03;;
23737;SDS011;12049;51.068;3.688;2022-07-29T12:53:23;4.93;;;2.00;;
23737;SDS011;12049;51.068;3.688;2022-07-29T12:55:50;8.88;;;2.28;;
23737;SDS011;12049;51.068;3.688;2022-07-29T12:58:37;5.60;;;2.00;;
23737;SDS011;12049;51.068;3.688;2022-07-29T13:09:03;6.30;;;2.10;;
23737;SDS011;12049;51.068;3.688;2022-07-29T13:11:38;6.13;;;2.30;;
23737;SDS011;12049;51.068;3.688;2022-07-29T13:14:09;6.18;;;1.90;;
23737;SDS011;12049;51.068;3.688;2022-07-29T13:16:36;5.25;;;2.47;;
23737;SDS011;12049;51.068;3.688;2022-07-29T13:19:32;4.38;;;2.08;;
23737;SDS011;12049;51.068;3.688;2022-07-29T13:21:59;7.32;;;2.15;;
23737;SDS011;12049;51.068;3.688;2022-07-29T13:24:25;5.25;;;2.58;;
23737;SDS011;12049;51.068;3.688;2022-07-29T13:26:50;4.68;;;2.05;;
23737;SDS011;12049;51.068;3.688;2022-07-29T13:29:16;9.25;;;2.40;;
23737;SDS011;12049;51.068;3.688;2022-07-29T13:31:42;6.18;;;2.30;;
23737;SDS011;12049;51.068;3.688;2022-07-29T13:34:08;4.95;;;2.28;;
23737;SDS011;12049;51.068;3.688;2022-07-29T13:36:34;5.60;;;1.85;;
23737;SDS011;12049;51.068;3.688;2022-07-29T13:38:59;5.15;;;1.90;;
23737;SDS011;12049;51.068;3.688;2022-07-29T13:41:27;5.75;;;2.00;;
23737;SDS011;12049;51.068;3.688;2022-07-29T13:43:53;3.38;;;1.90;;
23737;SDS011;12049;51.068;3.688;2022-07-29T13:46:19;9.00;;;1.98;;
23737;SDS011;12049;51.068;3.688;2022-07-29T13:48:45;5.57;;;2.13;;
23737;SDS011;12049;51.068;3.688;2022-07-29T13:51:10;3.45;;;1.70;;
23737;SDS011;12049;51.068;3.688;2022-07-29T13:53:36;5.88;;;2.03;;
23737;SDS011;12049;51.068;3.688;2022-07-29T13:56:01;3.72;;;1.80;;
23737;SDS011;12049;51.068;3.688;2022-07-29T13:58:27;4.75;;;2.10;;
23737;SDS011;12049;51.068;3.688;2022-07-29T14:00:53;6.72;;;1.83;;
23737;SDS011;12049;51.068;3.688;2022-07-29T14:03:19;4.65;;;1.90;;
23737;SDS011;12049;51.068;3.688;2022-07-29T14:05:44;7.88;;;2.45;;
23737;SDS011;12049;51.068;3.688;2022-07-29T14:08:10;5.80;;;1.92;;
23737;SDS011;12049;51.068;3.688;2022-07-29T14:10:36;5.43;;;2.20;;
23737;SDS011;12049;51.068;3.688;2022-07-29T14:13:01;4.50;;;2.17;;
23737;SDS011;12049;51.068;3.688;2022-07-29T14:15:27;5.05;;;2.25;;
23737;SDS011;12049;51.068;3.688;2022-07-29T14:17:53;4.55;;;1.98;;
23737;SDS011;12049;51.068;3.688;2022-07-29T14:20:18;6.55;;;1.92;;
23737;SDS011;12049;51.068;3.688;2022-07-29T14:22:44;5.30;;;2.30;;
23737;SDS011;12049;51.068;3.688;2022-07-29T14:25:10;10.00;;;1.85;;
23737;SDS011;12049;51.068;3.688;2022-07-29T14:27:35;5.18;;;2.13;;
23737;SDS011;12049;51.068;3.688;2022-07-29T14:30:01;5.28;;;1.65;;
23737;SDS011;12049;51.068;3.688;2022-07-29T14:32:27;4.03;;;1.80;;
23737;SDS011;12049;51.068;3.688;2022-07-29T14:34:52;4.25;;;1.80;;
23737;SDS011;12049;51.068;3.688;2022-07-29T14:37:18;5.93;;;2.10;;
23737;SDS011;12049;51.068;3.688;2022-07-29T14:39:44;5.68;;;2.03;;
23737;SDS011;12049;51.068;3.688;2022-07-29T14:42:10;2.90;;;1.67;;
23737;SDS011;12049;51.068;3.688;2022-07-29T14:44:35;4.40;;;1.83;;
23737;SDS011;12049;51.068;3.688;2022-07-29T14:47:01;4.65;;;1.90;;
23737;SDS011;12049;51.068;3.688;2022-07-29T14:49:27;4.40;;;2.08;;
23737;SDS011;12049;51.068;3.688;2022-07-29T14:51:52;5.85;;;2.10;;
23737;SDS011;12049;51.068;3.688;2022-07-29T14:54:18;5.45;;;1.80;;
23737;SDS011;12049;51.068;3.688;2022-07-29T14:56:44;2.85;;;1.67;;
23737;SDS011;12049;51.068;3.688;2022-07-29T14:59:10;4.38;;;1.80;;
23737;SDS011;12049;51.068;3.688;2022-07-29T15:01:35;5.25;;;1.50;;
23737;SDS011;12049;51.068;3.688;2022-07-29T15:04:01;8.95;;;1.90;;
23737;SDS011;12049;51.068;3.688;2022-07-29T15:06:27;4.85;;;1.90;;
23737;SDS011;12049;51.068;3.688;2022-07-29T15:08:52;4.88;;;1.92;;
23737;SDS011;12049;51.068;3.688;2022-07-29T15:11:18;6.90;;;2.10;;
23737;SDS011;12049;51.068;3.688;2022-07-29T15:13:44;5.05;;;2.08;;
23737;SDS011;12049;51.068;3.688;2022-07-29T15:16:10;7.97;;;1.90;;
23737;SDS011;12049;51.068;3.688;2022-07-29T15:18:35;5.60;;;1.92;;
23737;SDS011;12049;51.068;3.688;2022-07-29T15:21:03;6.93;;;1.90;;
23737;SDS011;12049;51.068;3.688;2022-07-29T15:23:31;3.88;;;1.90;;
23737;SDS011;12049;51.068;3.688;2022-07-29T15:25:57;5.05;;;1.73;;
23737;SDS011;12049;51.068;3.688;2022-07-29T15:28:22;4.45;;;1.90;;
23737;SDS011;12049;51.068;3.688;2022-07-29T15:30:48;4.35;;;1.65;;
23737;SDS011;12049;51.068;3.688;2022-07-29T15:33:15;7.78;;;1.67;;
23737;SDS011;12049;51.068;3.688;2022-07-29T15:35:40;6.50;;;1.80;;
23737;SDS011;12049;51.068;3.688;2022-07-29T15:38:06;5.80;;;1.80;;
23737;SDS011;12049;51.068;3.688;2022-07-29T15:40:32;9.95;;;1.92;;
23737;SDS011;12049;51.068;3.688;2022-07-29T15:42:58;4.05;;;1.60;;
23737;SDS011;12049;51.068;3.688;2022-07-29T15:45:32;7.43;;;2.08;;
23737;SDS011;12049;51.068;3.688;2022-07-29T15:48:05;6.60;;;1.95;;
23737;SDS011;12049;51.068;3.688;2022-07-29T15:50:32;6.35;;;1.73;;
23737;SDS011;12049;51.068;3.688;2022-07-29T15:52:58;6.30;;;1.70;;
23737;SDS011;12049;51.068;3.688;2022-07-29T15:55:24;4.60;;;1.88;;
23737;SDS011;12049;51.068;3.688;2022-07-29T15:57:49;6.60;;;1.70;;
23737;SDS011;12049;51.068;3.688;2022-07-29T16:00:15;6.20;;;1.88;;
23737;SDS011;12049;51.068;3.688;2022-07-29T16:02:42;7.05;;;2.10;;
23737;SDS011;12049;51.068;3.688;2022-07-29T16:05:08;3.92;;;1.63;;
23737;SDS011;12049;51.068;3.688;2022-07-29T16:07:34;4.03;;;2.13;;
23737;SDS011;12049;51.068;3.688;2022-07-29T16:10:00;6.05;;;1.75;;
23737;SDS011;12049;51.068;3.688;2022-07-29T16:12:26;4.28;;;1.90;;
23737;SDS011;12049;51.068;3.688;2022-07-29T16:14:52;6.28;;;2.22;;